Time;durP1;ratioP1;P1;durP2;ratioP2;P2;SDS_P1;SDS_P2;PMS_P1;PMS_P2;Temp;Humidity;BMP_temperature;BMP_pressure;BME280_temperature;BME280_humidity;BME280_pressure;Samples;Min_cycle;Max_cycle;Signal;HPM_P1;HPM_P2
2022/12/03 00:02:14;;;;;;;;;33.25;28.50;;;;;6.45;70.91;101319.25;5055815;28;45267;-76
2022/12/03 00:04:39;;;;;;;;;32.75;29.75;;;;;6.57;71.22;101354.53;5045948;28;45609;-77
2022/12/03 00:07:05;;;;;;;;;34.50;32.00;;;;;6.57;70.42;101355.41;5055786;28;45486;-75
2022/12/03 00:09:30;;;;;;;;;43.00;37.00;;;;;6.36;70.46;101305.25;5055187;28;45366;-76
2022/12/03 00:11:55;;;;;;;;;30.50;27.00;;;;;6.53;70.63;101332.44;5055575;28;45389;-75
2022/12/03 00:14:21;;;;;;;;;38.75;35.50;;;;;6.45;71.12;101318.38;5055595;28;45159;-76
2022/12/03 00:16:46;;;;;;;;;46.25;35.25;;;;;6.47;70.63;101329.88;5055526;28;45272;-76
2022/12/03 00:19:12;;;;;;;;;30.50;26.25;;;;;6.55;70.70;101337.72;5055198;28;46010;-77
2022/12/03 00:21:37;;;;;;;;;44.75;38.25;;;;;6.57;70.86;101330.56;5055546;28;45390;-75
2022/12/03 00:24:03;;;;;;;;;45.75;39.25;;;;;6.53;70.68;101326.22;5055250;28;45604;-78
2022/12/03 00:26:28;;;;;;;;;45.25;37.50;;;;;6.52;70.45;101313.81;5055417;28;45422;-75
2022/12/03 00:28:53;;;;;;;;;35.75;35.25;;;;;6.52;71.15;101314.69;5055232;28;46003;-77
2022/12/03 05:33:00;;;;;;;;;35.75;29.50;;;;;6.38;67.32;101267.00;5015816;27;45331;-75
2022/12/03 05:35:26;;;;;;;;;38.75;34.00;;;;;6.31;66.49;101256.50;4999915;28;45477;-76
2022/12/03 05:37:51;;;;;;;;;38.25;37.00;;;;;6.39;66.39;101265.22;4999879;28;45257;-75
2022/12/03 05:40:17;;;;;;;;;23.00;23.00;;;;;6.45;66.69;101267.78;5017985;28;45495;-75
2022/12/03 05:43:00;;;;;;;;;27.25;23.75;;;;;6.42;66.37;101263.38;5018004;28;45796;-75
2022/12/03 05:45:29;;;;;;;;;36.00;32.50;;;;;6.45;66.10;101274.00;5017680;28;45470;-76
2022/12/03 05:47:56;;;;;;;;;38.25;34.25;;;;;6.43;66.29;101274.91;5017753;28;45230;-77
2022/12/03 05:50:25;;;;;;;;;36.50;29.25;;;;;6.32;66.58;101259.16;5017791;28;45499;-75
2022/12/03 05:52:50;;;;;;;;;35.50;29.25;;;;;6.37;66.29;101267.94;5017273;28;45442;-74
2022/12/03 05:55:17;;;;;;;;;40.75;33.25;;;;;6.35;66.14;101261.75;5017389;28;46046;-77
2022/12/03 05:57:42;;;;;;;;;42.75;33.75;;;;;6.30;66.65;101263.63;5017623;28;45340;-75
2022/12/03 06:00:13;;;;;;;;;32.75;30.00;;;;;6.36;66.47;101266.19;5017513;28;45299;-75
2022/12/03 06:02:39;;;;;;;;;36.75;31.75;;;;;6.37;65.81;101269.72;5017519;28;45356;-76
2022/12/03 06:05:05;;;;;;;;;40.50;32.00;;;;;6.21;66.43;101244.31;5017229;28;45480;-75
2022/12/03 06:07:30;;;;;;;;;32.50;31.50;;;;;6.26;66.16;101245.97;4999303;28;45338;-76
2022/12/03 06:09:58;;;;;;;;;39.25;31.50;;;;;6.27;66.27;101252.19;5017635;28;45348;-77
2022/12/03 06:12:24;;;;;;;;;34.25;30.75;;;;;6.26;66.69;101256.63;5017471;28;45576;-77
2022/12/03 06:14:49;;;;;;;;;33.75;25.75;;;;;6.01;66.61;101220.75;5017415;28;45403;-75
2022/12/03 06:17:15;;;;;;;;;33.25;27.00;;;;;6.25;67.05;101262.84;5017541;28;45266;-76
2022/12/03 06:19:40;;;;;;;;;41.25;36.25;;;;;6.27;67.77;101261.03;4999582;28;45326;-75
2022/12/03 06:22:05;;;;;;;;;35.50;32.50;;;;;6.23;67.26;101259.34;5016957;28;45391;-74
2022/12/03 06:24:32;;;;;;;;;44.25;36.75;;;;;6.27;66.82;101262.81;4999335;28;45258;-76
2022/12/03 06:26:57;;;;;;;;;30.75;25.25;;;;;6.21;66.95;101253.16;5017438;28;45202;-76
2022/12/03 06:29:23;;;;;;;;;30.00;26.00;;;;;6.17;66.84;101246.16;5017435;28;45842;-75
2022/12/03 06:31:48;;;;;;;;;37.00;30.00;;;;;6.21;67.56;101254.97;5003750;28;45344;-76
2022/12/03 06:34:13;;;;;;;;;40.00;33.75;;;;;6.17;67.47;101242.63;5017146;28;46658;-75
2022/12/03 06:36:39;;;;;;;;;26.50;23.25;;;;;6.25;67.52;101249.53;5017223;28;45326;-76
2022/12/03 06:39:04;;;;;;;;;39.25;31.50;;;;;6.26;66.86;101253.09;5017173;28;45586;-73
2022/12/03 06:41:29;;;;;;;;;33.25;29.50;;;;;6.22;66.71;101257.56;5017178;28;45232;-74
2022/12/03 06:43:55;;;;;;;;;30.25;27.25;;;;;6.23;66.72;101254.00;5016464;28;45503;-75
2022/12/03 06:46:20;;;;;;;;;32.50;28.75;;;;;6.28;66.93;101262.81;5017003;28;45408;-76
2022/12/03 06:48:45;;;;;;;;;35.25;30.25;;;;;6.27;66.63;101260.16;5016760;28;45500;-76
2022/12/03 06:51:11;;;;;;;;;33.00;29.00;;;;;6.26;66.18;101253.97;5017418;28;45478;-74
2022/12/03 06:53:36;;;;;;;;;30.25;24.50;;;;;6.19;66.42;101255.00;5016728;28;45379;-75
2022/12/03 06:56:01;;;;;;;;;33.50;29.00;;;;;6.23;66.29;101267.31;5017395;28;45383;-77
2022/12/03 06:58:27;;;;;;;;;35.50;28.50;;;;;6.17;66.72;101256.81;5017508;28;45377;-77
2022/12/03 07:00:52;;;;;;;;;24.25;20.50;;;;;6.22;66.82;101265.56;5025301;28;45605;-74
2022/12/03 07:03:17;;;;;;;;;36.75;30.00;;;;;6.23;66.72;101261.13;5012353;28;46173;-77
2022/12/03 07:05:43;;;;;;;;;25.00;21.75;;;;;6.24;66.64;101270.88;5016510;28;45363;-73
2022/12/03 07:08:08;;;;;;;;;29.00;27.00;;;;;6.25;67.11;101267.28;5016651;28;45626;-75
2022/12/03 07:10:33;;;;;;;;;34.00;31.25;;;;;6.13;66.64;101249.75;5016320;28;45609;-74
2022/12/03 07:12:59;;;;;;;;;33.75;28.00;;;;;6.22;66.32;101264.69;5005354;28;45692;-73
2022/12/03 07:15:24;;;;;;;;;30.25;22.25;;;;;6.25;65.86;101272.63;5009926;28;45541;-75
2022/12/03 07:17:50;;;;;;;;;40.50;28.00;;;;;6.23;66.25;101266.44;5008707;28;45362;-77
2022/12/03 07:20:15;;;;;;;;;33.00;28.00;;;;;6.16;66.17;101259.50;5003720;28;45374;-77
2022/12/03 07:22:42;;;;;;;;;31.50;28.75;;;;;6.17;66.32;101261.25;5012580;28;45741;-81
2022/12/03 07:25:07;;;;;;;;;32.00;26.75;;;;;6.16;66.07;101248.84;5012837;28;45731;-75
2022/12/03 07:27:33;;;;;;;;;26.50;25.00;;;;;6.27;66.18;101273.47;5014296;28;45610;-75
2022/12/03 07:30:03;;;;;;;;;33.25;28.25;;;;;6.12;66.21;101244.50;5016445;28;45562;-74
2022/12/03 07:32:30;;;;;;;;;37.75;30.75;;;;;6.22;66.28;101256.69;5035110;28;46037;-77
2022/12/03 07:34:55;;;;;;;;;29.50;27.00;;;;;6.30;65.28;101284.03;5049365;28;45320;-75
2022/12/03 07:37:21;;;;;;;;;30.00;26.75;;;;;6.26;65.30;101280.59;5055000;28;45405;-76
2022/12/03 07:39:46;;;;;;;;;30.25;28.75;;;;;6.30;65.96;101281.38;5057136;28;45205;-75
2022/12/03 07:42:12;;;;;;;;;31.50;31.00;;;;;6.23;65.55;101272.66;5056506;28;46148;-77
2022/12/03 07:44:37;;;;;;;;;30.75;27.25;;;;;6.26;65.30;101277.03;5056848;28;45238;-74
2022/12/03 07:47:03;;;;;;;;;34.50;32.00;;;;;6.22;66.42;101270.88;5044188;28;45224;-76
2022/12/03 07:49:28;;;;;;;;;30.50;27.50;;;;;6.28;66.12;101277.91;5059589;28;45432;-74
2022/12/03 07:51:55;;;;;;;;;24.50;22.25;;;;;6.23;65.86;101269.09;5058375;28;46189;-75
2022/12/03 07:54:24;;;;;;;;;31.50;27.00;;;;;6.27;65.77;101276.13;5059365;28;45416;-75
2022/12/03 07:56:50;;;;;;;;;32.50;27.25;;;;;6.33;65.25;101287.53;5055114;28;45398;-76
2022/12/03 07:59:16;;;;;;;;;24.75;23.75;;;;;6.34;65.06;101291.97;5063287;28;45318;-77
2022/12/03 08:01:42;;;;;;;;;31.25;30.50;;;;;6.26;65.14;101282.38;5056936;28;45358;-77
2022/12/03 08:04:07;;;;;;;;;29.25;22.00;;;;;6.26;64.49;101285.03;5046218;28;45363;-74
2022/12/03 08:06:33;;;;;;;;;37.25;27.50;;;;;6.22;64.75;101284.19;5054273;28;45463;-75
2022/12/03 08:08:58;;;;;;;;;33.00;23.25;;;;;6.26;64.77;101290.34;5055031;28;45556;-76
2022/12/03 08:11:27;;;;;;;;;34.50;24.50;;;;;6.24;64.11;101289.50;5055529;28;46041;-75
2022/12/03 08:13:52;;;;;;;;;27.75;26.00;;;;;6.24;64.28;101284.19;5037353;28;45493;-78
2022/12/03 08:16:20;;;;;;;;;25.50;23.50;;;;;6.15;64.35;101266.59;5037650;28;45448;-76
2022/12/03 08:18:47;;;;;;;;;27.25;23.75;;;;;6.27;64.54;101278.81;5055970;28;45372;-76
2022/12/03 08:21:15;;;;;;;;;29.00;25.25;;;;;6.17;64.54;101269.22;5055519;28;45465;-78
2022/12/03 08:23:41;;;;;;;;;29.25;27.50;;;;;6.18;64.20;101278.97;5055612;28;45442;-79
2022/12/03 08:26:22;;;;;;;;;15.00;12.50;;;;;6.19;64.52;101278.06;5055779;28;45343;-78
2022/12/03 08:28:49;;;;;;;;;29.75;25.25;;;;;6.14;64.52;101269.28;5037426;28;46320;-78
2022/12/03 08:31:22;;;;;;;;;23.00;20.75;;;;;6.17;64.48;101280.75;5055420;28;45665;-76
2022/12/03 08:33:49;;;;;;;;;24.25;21.75;;;;;6.17;64.82;101275.44;5036999;28;45473;-77
2022/12/03 08:36:24;;;;;;;;;28.00;23.75;;;;;6.16;64.79;101279.00;5037426;28;45562;-77
2022/12/03 08:38:55;;;;;;;;;27.75;26.50;;;;;6.12;64.73;101260.47;5055390;28;45516;-77
2022/12/03 08:44:31;;;;;;;;;20.50;18.25;;;;;6.05;65.54;101271.22;5054930;28;45578;-73
2022/12/03 08:47:17;;;;;;;;;24.75;20.50;;;;;6.04;65.27;101269.44;5019012;28;45376;-77
2022/12/03 08:49:54;;;;;;;;;27.00;26.00;;;;;6.10;65.29;101286.22;5020450;28;46214;-77
2022/12/03 08:52:21;;;;;;;;;24.75;20.50;;;;;6.10;65.58;101278.25;5037092;28;46005;-80
2022/12/03 08:54:52;;;;;;;;;33.50;28.25;;;;;6.13;65.36;101283.50;5054993;28;46469;-75
2022/12/03 08:57:26;;;;;;;;;24.00;20.25;;;;;6.09;65.24;101274.72;5037568;28;45349;-78
2022/12/03 09:00:17;;;;;;;;;27.50;21.75;;;;;6.09;65.63;101272.03;5064000;28;45619;-78
2022/12/03 09:02:57;;;;;;;;;27.75;21.00;;;;;6.10;65.25;101273.81;5055320;28;46932;-77
2022/12/03 09:05:28;;;;;;;;;21.25;19.75;;;;;6.07;65.32;101280.06;5044857;28;45537;-79
2022/12/03 09:07:53;;;;;;;;;29.00;25.50;;;;;5.94;65.67;101248.38;5036907;28;45297;-75
2022/12/03 09:10:19;;;;;;;;;26.00;21.00;;;;;6.09;65.73;101280.03;5054917;28;45580;-76
2022/12/03 09:12:44;;;;;;;;;26.00;22.75;;;;;6.10;66.17;101276.47;5037122;28;46047;-79
2022/12/03 09:15:10;;;;;;;;;22.00;19.75;;;;;6.14;65.81;101274.59;5055386;28;45324;-77
2022/12/03 09:17:36;;;;;;;;;31.50;24.50;;;;;6.15;65.21;101274.59;5055148;28;45369;-78
2022/12/03 09:20:01;;;;;;;;;24.75;20.75;;;;;6.06;65.38;101265.00;5055104;28;45442;-77
2022/12/03 09:22:26;;;;;;;;;23.00;21.00;;;;;6.08;64.96;101259.63;5055075;28;45391;-78
2022/12/03 09:24:52;;;;;;;;;20.00;20.00;;;;;6.06;65.02;101262.31;5055122;28;45466;-77
2022/12/03 09:27:17;;;;;;;;;25.75;24.50;;;;;6.13;66.26;101272.84;5054880;28;45582;-75
2022/12/03 09:29:43;;;;;;;;;29.25;26.00;;;;;6.24;66.41;101277.06;5055063;28;45636;-79
2022/12/03 09:32:08;;;;;;;;;29.75;27.00;;;;;6.31;65.47;101278.69;5054607;28;46191;-78
2022/12/03 09:34:33;;;;;;;;;26.00;22.50;;;;;6.25;64.85;101262.84;5055024;28;45372;-76
2022/12/03 09:36:59;;;;;;;;;23.00;21.75;;;;;6.37;64.85;101278.59;5054678;28;46427;-73
2022/12/03 09:39:25;;;;;;;;;22.75;21.00;;;;;6.42;65.11;101286.47;5055014;28;45458;-75
2022/12/03 09:41:50;;;;;;;;;24.25;22.25;;;;;6.44;64.44;101285.53;5054776;28;45483;-73
2022/12/03 09:44:16;;;;;;;;;26.75;21.75;;;;;6.38;63.92;101269.66;5054446;28;45355;-74
2022/12/03 09:46:42;;;;;;;;;28.25;24.50;;;;;6.39;64.21;101278.53;5054556;28;45400;-75
2022/12/03 09:49:12;;;;;;;;;27.00;24.50;;;;;6.36;64.49;101287.50;5054207;28;45547;-74
2022/12/03 09:51:38;;;;;;;;;29.50;22.50;;;;;6.41;64.70;101280.28;5054934;28;45382;-77
2022/12/03 09:54:06;;;;;;;;;25.50;24.50;;;;;6.34;64.79;101260.00;5044882;28;45469;-77
2022/12/03 09:56:34;;;;;;;;;28.75;26.25;;;;;6.33;64.59;101254.72;5053547;28;45498;-77
2022/12/03 09:59:01;;;;;;;;;25.75;22.75;;;;;6.49;64.56;101272.13;5055932;28;45414;-77
2022/12/03 10:01:26;;;;;;;;;31.25;23.75;;;;;6.50;64.15;101275.66;5059488;28;45488;-73
2022/12/03 10:03:52;;;;;;;;;27.25;23.75;;;;;6.52;64.50;101261.41;5048153;28;45464;-73
2022/12/03 10:06:21;;;;;;;;;29.25;22.50;;;;;6.56;64.68;101265.75;5049912;28;45474;-74
2022/12/03 10:08:49;;;;;;;;;24.75;21.75;;;;;6.60;64.23;101261.25;5054112;28;45437;-73
2022/12/03 10:11:17;;;;;;;;;17.75;17.75;;;;;6.54;64.09;101248.06;5053465;28;46575;-73
2022/12/03 10:13:45;;;;;;;;;22.00;20.50;;;;;6.64;64.18;101255.81;5053676;28;45454;-73
2022/12/03 10:16:14;;;;;;;;;26.50;22.25;;;;;6.68;63.57;101260.19;5035990;28;45446;-72
2022/12/03 10:18:46;;;;;;;;;23.50;23.50;;;;;6.64;63.50;101246.94;5055634;28;45355;-72
2022/12/03 10:21:25;;;;;;;;;24.25;24.00;;;;;6.69;63.49;101251.28;5058669;28;45498;-73
2022/12/03 10:24:17;;;;;;;;;21.50;21.50;;;;;6.68;63.54;101244.19;5058976;28;45344;-72
2022/12/03 10:26:44;;;;;;;;;26.00;22.00;;;;;6.67;63.61;101239.78;5058632;28;45494;-72
2022/12/03 10:29:22;;;;;;;;;25.25;22.00;;;;;6.67;63.44;101236.22;5058575;28;46862;-73
2022/12/03 10:31:58;;;;;;;;;23.75;19.25;;;;;6.65;63.65;101246.03;5056677;28;45391;-73
2022/12/03 10:34:36;;;;;;;;;23.00;20.75;;;;;6.64;63.89;101241.59;5057501;28;45394;-74
2022/12/03 10:37:21;;;;;;;;;32.75;28.25;;;;;6.63;63.54;101232.78;5057038;28;45516;-75
2022/12/03 10:39:57;;;;;;;;;27.00;21.00;;;;;6.64;63.82;101236.28;5057213;28;45572;-74
2022/12/03 10:42:24;;;;;;;;;26.00;25.50;;;;;6.63;63.88;101235.44;5056933;28;45500;-73
2022/12/03 10:45:18;;;;;;;;;24.75;21.75;;;;;6.61;63.17;101223.03;5056994;28;45395;-74
2022/12/03 10:48:03;;;;;;;;;30.25;25.25;;;;;6.61;63.49;101228.38;5053271;28;45394;-74
2022/12/03 10:50:29;;;;;;;;;28.50;24.00;;;;;6.59;63.32;101227.53;5052409;28;45457;-73
2022/12/03 10:52:54;;;;;;;;;29.50;25.00;;;;;6.60;63.43;101226.63;5056219;28;45411;-75
2022/12/03 10:55:19;;;;;;;;;23.25;19.50;;;;;6.62;63.67;101222.16;5056533;28;45277;-74
2022/12/03 10:57:45;;;;;;;;;23.75;22.50;;;;;6.65;63.15;101224.72;5057330;28;45575;-72
2022/12/03 11:00:16;;;;;;;;;25.75;23.25;;;;;6.48;63.55;101201.13;5064490;28;45492;-72
2022/12/03 11:02:42;;;;;;;;;26.50;25.50;;;;;6.61;63.95;101220.38;5055754;28;46277;-74
2022/12/03 11:05:15;;;;;;;;;23.00;21.75;;;;;6.62;63.52;101219.47;5057416;28;45332;-74
2022/12/03 11:07:42;;;;;;;;;31.75;24.00;;;;;6.61;63.36;101212.38;5056435;28;45392;-73
2022/12/03 11:10:14;;;;;;;;;29.75;22.75;;;;;6.61;64.07;101209.72;5038552;28;46832;-77
2022/12/03 11:12:40;;;;;;;;;28.50;26.75;;;;;6.61;63.82;101212.38;5056821;28;45489;-75
2022/12/03 11:15:13;;;;;;;;;30.75;28.75;;;;;6.64;64.21;101215.84;5038243;28;45323;-75
2022/12/03 11:17:42;;;;;;;;;21.00;21.00;;;;;6.64;63.05;101209.63;5056520;28;45367;-73
2022/12/03 11:20:19;;;;;;;;;29.75;22.00;;;;;6.64;63.89;101207.84;5056648;28;45189;-74
2022/12/03 11:22:46;;;;;;;;;27.00;23.50;;;;;6.60;63.50;101199.97;5038399;28;47221;-75
2022/12/03 11:25:24;;;;;;;;;26.50;22.50;;;;;6.67;63.95;101204.25;5038532;28;45423;-80
2022/12/03 11:28:31;;;;;;;;;22.00;21.50;;;;;6.66;63.46;101202.50;5038534;28;45620;-76
2022/12/03 11:31:01;;;;;;;;;27.25;24.00;;;;;6.58;63.47;101186.69;4971845;28;45600;-75
2022/12/03 11:33:32;;;;;;;;;27.25;23.75;;;;;6.58;63.53;101185.81;4971420;28;47147;-76
2022/12/03 11:36:04;;;;;;;;;27.00;25.00;;;;;6.69;63.69;101203.31;5001838;28;45444;-75
2022/12/03 11:38:35;;;;;;;;;31.25;23.25;;;;;6.70;63.28;101197.09;5056407;28;45311;-75
2022/12/03 11:41:08;;;;;;;;;21.50;19.50;;;;;6.70;63.09;101194.41;5057273;28;45447;-78
2022/12/03 11:43:52;;;;;;;;;20.75;20.00;;;;;6.72;63.39;101197.91;5056596;28;46524;-77
2022/12/03 11:46:24;;;;;;;;;27.00;24.75;;;;;6.57;62.78;101168.94;5056778;28;45269;-76
2022/12/03 11:48:54;;;;;;;;;25.00;25.00;;;;;6.67;62.92;101186.47;5056382;28;45191;-78
2022/12/03 11:51:22;;;;;;;;;26.50;24.75;;;;;6.58;63.02;101161.84;5056126;28;45602;-77
2022/12/03 11:53:50;;;;;;;;;25.50;24.75;;;;;6.67;63.25;101189.16;5056034;28;45425;-76
2022/12/03 11:56:18;;;;;;;;;24.50;23.25;;;;;6.61;63.21;101181.31;5056107;28;45336;-76
2022/12/03 11:58:46;;;;;;;;;28.75;25.50;;;;;6.57;63.04;101171.63;5059032;28;45473;-76
2022/12/03 12:01:12;;;;;;;;;26.50;25.00;;;;;6.62;62.74;101184.84;5060240;28;47438;-78
2022/12/03 12:03:42;;;;;;;;;25.75;22.50;;;;;6.60;62.87;101171.56;5051485;28;46030;-77
2022/12/03 12:06:11;;;;;;;;;29.00;24.25;;;;;6.60;63.14;101168.88;5051957;28;45261;-75
2022/12/03 12:08:50;;;;;;;;;27.00;27.00;;;;;6.60;62.96;101168.00;5056412;28;45402;-76
2022/12/03 12:11:19;;;;;;;;;23.75;21.25;;;;;6.64;63.00;101169.69;5055991;28;45323;-77
2022/12/03 12:14:10;;;;;;;;;28.25;24.00;;;;;6.67;63.06;101172.28;5056695;28;46383;-77
2022/12/03 12:16:39;;;;;;;;;23.50;23.50;;;;;6.70;63.23;101149.13;5056149;28;45239;-74
2022/12/03 12:19:42;;;;;;;;;26.75;26.25;;;;;6.73;63.36;101158.81;5056122;28;45339;-76
2022/12/03 12:22:31;;;;;;;;;25.75;23.50;;;;;6.74;63.48;101158.78;5037635;28;46303;-76
2022/12/03 12:25:05;;;;;;;;;24.00;23.00;;;;;6.70;63.34;101137.59;5055066;28;45438;-77
2022/12/03 12:27:43;;;;;;;;;22.50;22.50;;;;;6.74;62.84;101148.13;5055640;28;45548;-79
2022/12/03 12:30:15;;;;;;;;;29.50;26.00;;;;;6.70;62.88;101149.13;5055567;28;45328;-77
2022/12/03 12:32:49;;;;;;;;;26.50;24.50;;;;;6.65;62.40;101143.00;5055286;28;45311;-75
2022/12/03 12:35:27;;;;;;;;;27.50;25.00;;;;;6.64;63.03;101146.56;5038077;28;46601;-73
2022/12/03 12:38:06;;;;;;;;;21.25;21.25;;;;;6.57;62.96;101136.09;5059301;28;45350;-78
2022/12/03 12:40:34;;;;;;;;;25.75;25.00;;;;;6.65;63.10;101164.31;5041027;28;45503;-75
2022/12/03 12:43:09;;;;;;;;;21.25;20.00;;;;;6.38;62.74;101106.38;5058906;28;45451;-78
2022/12/03 12:45:43;;;;;;;;;21.25;21.25;;;;;6.56;63.21;101135.22;5058539;28;45407;-77
2022/12/03 12:48:27;;;;;;;;;24.00;22.75;;;;;6.68;63.19;101150.94;5040228;28;45282;-77
2022/12/03 12:51:10;;;;;;;;;23.25;20.00;;;;;6.54;62.69;101122.88;5055478;28;45336;-78
2022/12/03 12:53:38;;;;;;;;;23.25;22.25;;;;;6.65;63.16;101137.69;5054815;28;45616;-77
2022/12/03 12:56:22;;;;;;;;;23.75;19.00;;;;;6.71;63.42;101140.22;5055141;28;45338;-76
2022/12/03 12:58:47;;;;;;;;;25.75;25.75;;;;;6.64;62.55;101127.06;5054969;28;45391;-77
2022/12/03 13:01:29;;;;;;;;;18.00;18.00;;;;;6.66;62.81;101128.78;5055243;28;45422;-77
2022/12/03 13:03:55;;;;;;;;;25.00;18.75;;;;;6.72;62.80;101135.78;5048503;28;45388;-77
2022/12/03 13:06:26;;;;;;;;;21.75;21.75;;;;;6.76;63.49;101137.44;5050375;28;47293;-76
2022/12/03 13:08:52;;;;;;;;;21.75;20.75;;;;;6.80;63.18;101123.13;5055020;28;45404;-74
2022/12/03 13:11:29;;;;;;;;;21.00;21.00;;;;;6.84;63.66;101114.13;5054807;28;45412;-75
2022/12/03 13:13:55;;;;;;;;;23.75;22.00;;;;;6.85;63.80;101107.91;5055381;28;45364;-77
2022/12/03 13:16:27;;;;;;;;;29.50;26.00;;;;;6.88;62.79;101109.63;5054841;28;45504;-77
2022/12/03 13:19:12;;;;;;;;;24.75;22.25;;;;;6.94;62.86;101114.78;5054796;28;45616;-74
2022/12/03 13:21:42;;;;;;;;;25.50;24.25;;;;;6.90;63.01;101102.44;5054951;28;45425;-74
2022/12/03 13:24:31;;;;;;;;;24.00;22.75;;;;;6.96;62.98;101099.63;5036512;28;46177;-75
2022/12/03 13:26:59;;;;;;;;;26.50;22.50;;;;;6.95;62.53;101106.75;5054803;28;46074;-80
2022/12/03 13:29:26;;;;;;;;;27.00;24.00;;;;;6.85;63.11;101091.91;5055233;28;45665;-76
2022/12/03 13:32:01;;;;;;;;;25.75;21.25;;;;;6.81;63.13;101075.09;5054673;28;45392;-77
2022/12/03 13:34:31;;;;;;;;;25.00;22.25;;;;;6.95;62.78;101089.88;5054968;28;45316;-76
2022/12/03 13:36:58;;;;;;;;;30.25;25.75;;;;;6.94;62.46;101088.13;5036834;28;48143;-75
2022/12/03 13:39:34;;;;;;;;;22.50;21.75;;;;;6.93;63.11;101097.03;5054646;28;45370;-77
2022/12/03 13:42:43;;;;;;;;;21.75;21.75;;;;;6.94;62.72;101096.13;5055294;28;45413;-79
2022/12/03 13:45:12;;;;;;;;;22.00;20.00;;;;;6.89;62.54;101088.22;5055195;28;46038;-79
2022/12/03 13:47:37;;;;;;;;;20.75;20.75;;;;;6.82;62.92;101078.66;5036860;28;48293;-79
2022/12/03 13:50:19;;;;;;;;;33.50;25.75;;;;;6.82;62.86;101087.53;5054888;28;45261;-77
2022/12/03 13:52:45;;;;;;;;;22.50;21.25;;;;;6.74;62.69;101072.63;5054488;28;45415;-78
2022/12/03 13:55:21;;;;;;;;;24.75;22.00;;;;;6.79;62.96;101076.09;5038248;28;47230;-76
2022/12/03 13:57:46;;;;;;;;;23.50;20.00;;;;;6.79;63.08;101068.97;5058050;28;46420;-77
2022/12/03 14:00:12;;;;;;;;;21.50;21.50;;;;;6.82;63.40;101063.53;5057602;28;45335;-75
2022/12/03 14:02:38;;;;;;;;;29.75;21.75;;;;;6.83;63.09;101051.09;5058024;28;45422;-76
2022/12/03 14:05:04;;;;;;;;;26.00;24.25;;;;;6.85;63.52;101059.94;5039741;28;46353;-76
2022/12/03 14:07:30;;;;;;;;;24.50;21.00;;;;;6.67;62.96;101039.94;5057674;28;46089;-78
2022/12/03 14:09:56;;;;;;;;;21.00;17.00;;;;;6.79;63.32;101065.44;5039023;28;45397;-76
2022/12/03 14:12:24;;;;;;;;;22.75;18.00;;;;;6.78;62.84;101072.53;5039866;28;45583;-77
2022/12/03 14:14:50;;;;;;;;;19.25;19.25;;;;;6.73;63.11;101068.22;5057684;28;45448;-77
2022/12/03 14:17:15;;;;;;;;;20.75;18.25;;;;;6.70;63.12;101070.97;5057613;28;45564;-76
2022/12/03 14:19:41;;;;;;;;;21.25;21.25;;;;;6.67;63.46;101074.59;5057635;28;45469;-76
2022/12/03 14:22:08;;;;;;;;;31.25;25.50;;;;;6.66;63.63;101078.16;5057711;28;45335;-78
2022/12/03 14:24:33;;;;;;;;;32.75;23.75;;;;;6.47;63.82;101042.22;5057427;28;45681;-79
2022/12/03 14:26:59;;;;;;;;;21.00;19.25;;;;;6.67;63.60;101074.59;5057468;28;46144;-77
2022/12/03 14:29:24;;;;;;;;;9.75;9.75;;;;;6.64;63.31;101081.75;5057655;28;45382;-75
2022/12/03 14:31:49;;;;;;;;;20.00;20.00;;;;;6.59;63.11;101071.22;5039573;28;45497;-78
2022/12/03 14:34:15;;;;;;;;;23.25;21.50;;;;;6.63;62.94;101072.94;5057312;28;45281;-77
2022/12/03 14:36:40;;;;;;;;;23.00;20.50;;;;;6.53;63.33;101060.75;5039085;28;45946;-75
2022/12/03 14:39:07;;;;;;;;;24.25;24.25;;;;;6.55;63.34;101063.38;5057275;28;45246;-77
2022/12/03 14:44:16;;;;;;;;;20.00;18.00;;;;;6.56;63.61;101079.28;5057606;28;45387;-75
2022/12/03 14:46:42;;;;;;;;;23.75;21.50;;;;;6.39;63.94;101050.41;5056972;28;45284;-77
2022/12/03 14:49:07;;;;;;;;;25.00;25.00;;;;;6.48;64.06;101078.59;5057266;28;45199;-74
2022/12/03 14:51:32;;;;;;;;;24.25;20.00;;;;;6.57;63.57;101086.38;5038677;28;45284;-77
2022/12/03 14:53:58;;;;;;;;;26.25;23.75;;;;;6.37;63.58;101046.03;5057050;28;45557;-75
2022/12/03 14:56:23;;;;;;;;;24.75;23.50;;;;;6.57;63.48;101082.81;5056690;28;45999;-75
2022/12/03 14:58:48;;;;;;;;;18.00;16.00;;;;;6.54;64.01;101072.28;5057394;28;45264;-74
2022/12/03 15:01:15;;;;;;;;;23.50;21.25;;;;;6.58;64.27;101080.13;5059381;28;45170;-79
2022/12/03 15:03:40;;;;;;;;;26.50;23.00;;;;;6.56;64.42;101075.75;5041865;28;46097;-75
2022/12/03 15:06:06;;;;;;;;;21.75;20.00;;;;;6.45;63.94;101058.25;5040919;28;46227;-75
2022/12/03 15:08:34;;;;;;;;;25.00;19.50;;;;;6.61;63.61;101095.19;5059442;28;45272;-76
2022/12/03 15:10:59;;;;;;;;;25.25;25.25;;;;;6.53;63.63;101086.50;5042162;28;45302;-77
2022/12/03 15:13:25;;;;;;;;;20.50;17.75;;;;;6.58;63.84;101090.78;5058281;28;45608;-76
2022/12/03 15:15:50;;;;;;;;;21.75;17.00;;;;;6.54;63.30;101091.78;5056847;28;46010;-75
2022/12/03 15:18:16;;;;;;;;;31.25;28.50;;;;;6.54;63.67;101085.59;5057311;28;45314;-78
2022/12/03 15:20:41;;;;;;;;;17.25;17.25;;;;;6.55;63.58;101087.34;5057302;28;45296;-77
2022/12/03 15:23:06;;;;;;;;;24.00;23.00;;;;;6.53;63.89;101073.19;5056565;28;45470;-75
2022/12/03 15:25:33;;;;;;;;;24.25;21.75;;;;;6.30;64.04;101041.75;5056461;28;45575;-79
2022/12/03 15:27:59;;;;;;;;;22.75;22.25;;;;;6.40;64.09;101076.13;5056668;28;45399;-77
2022/12/03 15:30:24;;;;;;;;;20.25;17.25;;;;;6.39;64.09;101074.38;5038374;28;45874;-76
2022/12/03 15:32:49;;;;;;;;;19.75;19.75;;;;;6.32;64.34;101064.78;5056120;28;45145;-76
2022/12/03 15:35:17;;;;;;;;;22.25;21.75;;;;;6.34;64.03;101075.41;5056332;28;45923;-74
2022/12/03 15:37:45;;;;;;;;;23.50;21.75;;;;;6.25;64.26;101052.53;5056104;28;45382;-75
2022/12/03 15:40:11;;;;;;;;;19.25;17.00;;;;;6.16;64.03;101028.78;5056256;28;45437;-76
2022/12/03 15:42:36;;;;;;;;;24.75;22.25;;;;;6.23;64.24;101038.38;5056416;28;45472;-78
2022/12/03 15:45:05;;;;;;;;;26.25;22.00;;;;;6.32;63.68;101056.78;5056010;28;46347;-79
2022/12/03 15:47:30;;;;;;;;;23.00;20.75;;;;;6.10;63.95;101031.59;5056456;28;45464;-77
2022/12/03 15:49:56;;;;;;;;;22.50;21.50;;;;;6.29;64.27;101054.22;5056281;28;45411;-75
2022/12/03 15:52:21;;;;;;;;;24.75;24.50;;;;;6.28;64.38;101057.78;5037656;28;46205;-75
2022/12/03 15:54:48;;;;;;;;;28.00;23.00;;;;;6.29;64.33;101059.53;5055811;28;45379;-78
2022/12/03 15:57:14;;;;;;;;;25.50;23.25;;;;;6.34;64.48;101059.41;5055954;28;45310;-76
2022/12/03 15:59:39;;;;;;;;;21.25;21.25;;;;;6.30;64.51;101050.63;5056089;28;45290;-76
2022/12/03 16:02:05;;;;;;;;;29.75;25.25;;;;;6.42;64.91;101063.66;5055989;28;45339;-75
2022/12/03 16:04:30;;;;;;;;;23.00;21.00;;;;;6.30;64.10;101039.09;5045784;28;45364;-78
2022/12/03 16:06:55;;;;;;;;;18.50;16.50;;;;;6.45;64.20;101052.06;5055678;28;45218;-74
2022/12/03 16:09:21;;;;;;;;;25.25;23.50;;;;;6.40;63.94;101037.97;5055807;28;45165;-75
2022/12/03 16:11:46;;;;;;;;;24.00;24.00;;;;;6.43;64.10;101053.88;5056039;28;45379;-75
2022/12/03 16:14:12;;;;;;;;;26.25;25.75;;;;;6.46;64.47;101051.16;5055739;28;45459;-76
2022/12/03 16:16:37;;;;;;;;;25.50;20.75;;;;;6.39;64.10;101037.09;5054817;28;45248;-75
2022/12/03 16:19:03;;;;;;;;;23.00;21.25;;;;;6.39;64.38;101034.41;5037634;28;45648;-77
2022/12/03 16:21:28;;;;;;;;;21.25;20.00;;;;;6.49;64.30;101058.16;5055530;28;45738;-79
2022/12/03 16:23:54;;;;;;;;;20.50;20.50;;;;;6.45;63.96;101054.72;5036919;28;46455;-76
2022/12/03 16:26:21;;;;;;;;;24.50;19.00;;;;;6.47;64.23;101059.06;5055575;28;45352;-77
2022/12/03 16:28:46;;;;;;;;;27.25;19.75;;;;;6.39;64.21;101047.72;5037368;28;45419;-77
2022/12/03 16:31:11;;;;;;;;;24.75;22.75;;;;;6.39;64.10;101057.50;5055484;28;45388;-75
2022/12/03 16:33:37;;;;;;;;;26.00;24.75;;;;;6.32;63.91;101058.56;5055304;28;46118;-76